Startpagina
METAR-TAF:

METAR-TAF

Vliegvelden :

Koksijde, België

Vliegbasis Koksijde

breedte: 51-05N, lengte: 002-39E, hoogte: 4 m

Actueel weer

Dit bericht is 26 minuten geleden gemaakt, om 18:55 UTC
Wind 2 kt uit variabele richting
Temperatuur 19°C
Vochtigheid 56%
Druk 1015 hPa
Zicht 10 km of meer
Verspreide wolken op 16000 ft
Gebroken wolken op 18000 ft

METAR: EBFN 221855Z VRB02KT 9999 SCT160 BKN180 19/10 Q1015 BLU BLU

Tijdstip: 21:21 (19:21 UTC)

Verwachting

Dit bericht is 4 uur en het 21 minuten geleden gemaakt, om 15:00 UTC
Verwachting geldig van 22 om 19 UTC tot 23 om 07 UTC
Wind 6 kt uit het zuidzuidwesten
Zicht 10 km of meer
Verspreide wolken op 12000 ft
Gebroken wolken op 20000 ft
Wijzigt naar
van 23 om 04 UTC tot 23 om 06 UTC
Wind 10 kt uit het noordwesten
Kans 40% :
Tijdelijke
van 23 om 03 UTC tot 23 om 07 UTC
Verspreide wolken op 1500 ft

TAF: EBFN 221500Z 2219/2307 20006KT 9999 SCT120 BKN200 BECMG 2304/2306 32010KT PROB40 TEMPO 2303/2307 SCT015

Waarnemingen en weersverwachtingen van meer dan 4000 vliegvelden (METAR en TAF).

De beschikbare stations zijn de gele en rode punten op de kaart.

Ga met uw muis naar het station om de naam te zien.

Klik dan om waarnemingen en weersverwachtingen te zien.

kaart wijzigen: klik op de groene knoppen met een zwart kruis om in te zoomen, op de groene knop met een streepje om uit te zoomen of op de groene pijlen voor aangrenzende kaarten.


METAR-TAF: